Time;durP1;ratioP1;P1;durP2;ratioP2;P2;SDS_P1;SDS_P2;PMS_P1;PMS_P2;Temp;Humidity;BMP_temperature;BMP_pressure;BME280_temperature;BME280_humidity;BME280_pressure;Samples;Min_cycle;Max_cycle;Signal;HPM_P1;HPM_P2
2022/04/12 00:01:36;;;;;;;1999.90;999.90;;;;;;;;;;5066414;28;20410;-78
2022/04/12 00:04:04;;;;;;;1999.90;999.90;;;;;;;;;;5072376;28;20730;-77
2022/04/12 00:06:32;;;;;;;1999.90;999.90;;;;;;;;;;5061646;28;20232;-77
2022/04/12 00:08:59;;;;;;;1999.90;999.90;;;;;;;;;;5075273;28;20403;-77
2022/04/12 00:11:27;;;;;;;1999.90;999.90;;;;;;;;;;5069217;28;20395;-77
2022/04/12 00:13:55;;;;;;;1999.90;999.90;;;;;;;;;;5068905;28;20398;-78
2022/04/12 00:16:24;;;;;;;1999.90;999.90;;;;;;;;;;5073678;28;20389;-78
2022/04/12 00:19:02;;;;;;;1999.90;999.90;;;;;;;;;;5073448;28;20445;-77
2022/04/12 00:21:34;;;;;;;1999.90;999.90;;;;;;;;;;5066641;28;20420;-77
2022/04/12 00:24:03;;;;;;;1999.90;999.90;;;;;;;;;;5071678;28;20415;-77
2022/04/12 00:26:30;;;;;;;1999.90;999.90;;;;;;;;;;5073321;28;21651;-77
2022/04/12 00:28:58;;;;;;;1999.90;999.90;;;;;;;;;;5071162;28;20391;-77
2022/04/12 00:31:27;;;;;;;1999.90;999.90;;;;;;;;;;5055032;28;20397;-78
2022/04/12 00:33:54;;;;;;;1999.90;999.90;;;;;;;;;;5071939;28;20398;-78
2022/04/12 00:36:22;;;;;;;1999.90;999.90;;;;;;;;;;5071649;28;20490;-77
2022/04/12 00:38:49;;;;;;;1999.90;999.90;;;;;;;;;;5067317;28;20926;-77
2022/04/12 00:41:17;;;;;;;1999.90;999.90;;;;;;;;;;5072220;28;20228;-78
2022/04/12 00:43:44;;;;;;;1999.90;999.90;;;;;;;;;;5069218;28;20232;-76
2022/04/12 00:46:12;;;;;;;1999.90;999.90;;;;;;;;;;5070101;28;20339;-76
2022/04/12 00:48:41;;;;;;;1999.90;999.90;;;;;;;;;;5071182;28;20228;-77
2022/04/12 00:51:09;;;;;;;1999.90;999.90;;;;;;;;;;5051456;28;20228;-77
2022/04/12 00:53:38;;;;;;;1999.90;999.90;;;;;;;;;;5070573;28;20236;-77
2022/04/12 00:56:06;;;;;;;1999.90;999.90;;;;;;;;;;5069580;28;20224;-77
2022/04/12 00:58:34;;;;;;;1999.90;999.90;;;;;;;;;;5068749;28;20318;-77
2022/04/12 01:01:01;;;;;;;1999.90;999.90;;;;;;;;;;5068077;28;20281;-78
2022/04/12 01:03:29;;;;;;;1999.90;999.90;;;;;;;;;;5071012;28;20302;-76
2022/04/12 01:05:58;;;;;;;1999.90;999.90;;;;;;;;;;5069196;28;20242;-76
2022/04/12 01:08:25;;;;;;;1999.90;999.90;;;;;;;;;;5072736;28;20762;-77
2022/04/12 01:10:53;;;;;;;1999.90;999.90;;;;;;;;;;5069159;28;20281;-77
2022/04/12 01:13:21;;;;;;;1999.90;999.90;;;;;;;;;;5072717;28;20219;-77
2022/04/12 01:15:48;;;;;;;1999.90;999.90;;;;;;;;;;5076176;28;20231;-76
2022/04/12 01:18:16;;;;;;;1999.90;999.90;;;;;;;;;;5071908;28;20236;-76
2022/04/12 01:20:44;;;;;;;1999.90;999.90;;;;;;;;;;5069870;28;20732;-76
2022/04/12 01:23:15;;;;;;;1999.90;999.90;;;;;;;;;;5046670;28;20319;-77
2022/04/12 01:25:44;;;;;;;1999.90;999.90;;;;;;;;;;5065449;28;20758;-78
2022/04/12 01:28:12;;;;;;;1999.90;999.90;;;;;;;;;;5065431;28;20957;-78
2022/04/12 01:30:40;;;;;;;1999.90;999.90;;;;;;;;;;5069647;28;20398;-77
2022/04/12 01:33:08;;;;;;;1999.90;999.90;;;;;;;;;;5067836;28;20395;-76
2022/04/12 01:35:36;;;;;;;1999.90;999.90;;;;;;;;;;5069727;28;20256;-76
2022/04/12 01:38:04;;;;;;;1999.90;999.90;;;;;;;;;;5070717;28;20228;-76
2022/04/12 01:40:31;;;;;;;1999.90;999.90;;;;;;;;;;5071445;28;20227;-76
2022/04/12 01:43:00;;;;;;;1999.90;999.90;;;;;;;;;;5067060;28;20413;-76
2022/04/12 01:45:28;;;;;;;1999.90;999.90;;;;;;;;;;5066063;28;20270;-77
2022/04/12 01:47:56;;;;;;;1999.90;999.90;;;;;;;;;;5072875;28;20255;-78
2022/04/12 01:50:24;;;;;;;1999.90;999.90;;;;;;;;;;5073498;28;20710;-76
2022/04/12 01:52:52;;;;;;;1999.90;999.90;;;;;;;;;;5051628;28;20316;-77
2022/04/12 01:55:19;;;;;;;1999.90;999.90;;;;;;;;;;5067334;28;20714;-77
2022/04/12 01:57:47;;;;;;;1999.90;999.90;;;;;;;;;;5068652;28;20232;-76
2022/04/12 02:00:16;;;;;;;1999.90;999.90;;;;;;;;;;5066484;28;20318;-77
2022/04/12 02:02:44;;;;;;;1999.90;999.90;;;;;;;;;;5067043;28;20731;-77
2022/04/12 02:05:12;;;;;;;1999.90;999.90;;;;;;;;;;5071580;28;20346;-76
2022/04/12 02:07:41;;;;;;;1999.90;999.90;;;;;;;;;;5069061;28;20232;-78
2022/04/12 02:10:10;;;;;;;1999.90;999.90;;;;;;;;;;5070729;28;20283;-77
2022/04/12 02:12:38;;;;;;;1999.90;999.90;;;;;;;;;;5069268;28;20216;-78
2022/04/12 02:15:06;;;;;;;1999.90;999.90;;;;;;;;;;5076129;28;20228;-77
2022/04/12 02:17:34;;;;;;;1999.90;999.90;;;;;;;;;;5073672;28;20227;-77
2022/04/12 02:20:02;;;;;;;1999.90;999.90;;;;;;;;;;5072297;28;20259;-77
2022/04/12 02:22:30;;;;;;;1999.90;999.90;;;;;;;;;;5067324;28;20294;-77
2022/04/12 02:24:57;;;;;;;1999.90;999.90;;;;;;;;;;5068173;28;20251;-77
2022/04/12 02:27:25;;;;;;;1999.90;999.90;;;;;;;;;;5067129;28;20812;-78
2022/04/12 02:29:52;;;;;;;1999.90;999.90;;;;;;;;;;5066010;28;20231;-76
2022/04/12 02:32:20;;;;;;;1999.90;999.90;;;;;;;;;;5072744;28;20243;-77
2022/04/12 02:34:49;;;;;;;1999.90;999.90;;;;;;;;;;5074043;28;20298;-77
2022/04/12 02:37:16;;;;;;;1999.90;999.90;;;;;;;;;;5065655;28;20319;-77
2022/04/12 02:39:43;;;;;;;1999.90;999.90;;;;;;;;;;5069469;28;20227;-77
2022/04/12 02:42:11;;;;;;;1999.90;999.90;;;;;;;;;;5065461;28;20255;-77
2022/04/12 02:44:39;;;;;;;1999.90;999.90;;;;;;;;;;5067195;28;20234;-77
2022/04/12 02:47:07;;;;;;;1999.90;999.90;;;;;;;;;;5070875;28;20232;-76
2022/04/12 02:49:34;;;;;;;1999.90;999.90;;;;;;;;;;5045837;28;20272;-77
2022/04/12 02:52:03;;;;;;;1999.90;999.90;;;;;;;;;;5063533;28;20228;-77
2022/04/12 02:54:31;;;;;;;1999.90;999.90;;;;;;;;;;5066464;28;20236;-78
2022/04/12 02:56:59;;;;;;;1999.90;999.90;;;;;;;;;;5046009;28;20333;-77
2022/04/12 02:59:26;;;;;;;1999.90;999.90;;;;;;;;;;5068971;28;21215;-77
2022/04/12 03:01:54;;;;;;;1999.90;999.90;;;;;;;;;;5070395;28;20307;-78
2022/04/12 03:04:21;;;;;;;1999.90;999.90;;;;;;;;;;5074449;28;20232;-77
2022/04/12 03:07:05;;;;;;;1999.90;999.90;;;;;;;;;;5069365;28;20317;-76
2022/04/12 03:09:33;;;;;;;1999.90;999.90;;;;;;;;;;5064231;28;21012;-77
2022/04/12 03:12:01;;;;;;;1999.90;999.90;;;;;;;;;;5084511;28;20279;-77
2022/04/12 03:14:28;;;;;;;1999.90;999.90;;;;;;;;;;5073393;28;20979;-76
2022/04/12 03:16:56;;;;;;;1999.90;999.90;;;;;;;;;;5069494;28;20784;-76
2022/04/12 03:19:23;;;;;;;1999.90;999.90;;;;;;;;;;5073568;28;20231;-77
2022/04/12 03:21:51;;;;;;;1999.90;999.90;;;;;;;;;;5066767;28;20263;-76
2022/04/12 03:24:22;;;;;;;1999.90;999.90;;;;;;;;;;5075476;28;20326;-76
2022/04/12 03:26:49;;;;;;;1999.90;999.90;;;;;;;;;;5066931;28;20760;-77
2022/04/12 03:29:18;;;;;;;1999.90;999.90;;;;;;;;;;5067839;28;20263;-77
2022/04/12 03:31:45;;;;;;;1999.90;999.90;;;;;;;;;;5053594;28;20227;-78
2022/04/12 03:34:13;;;;;;;1999.90;999.90;;;;;;;;;;5070275;28;20742;-78
2022/04/12 03:36:41;;;;;;;1999.90;999.90;;;;;;;;;;5074396;28;20231;-78
2022/04/12 03:39:17;;;;;;;1999.90;999.90;;;;;;;;;;5055412;28;21476;-78
2022/04/12 03:41:47;;;;;;;1999.90;999.90;;;;;;;;;;5072673;28;20224;-78
2022/04/12 03:44:14;;;;;;;1999.90;999.90;;;;;;;;;;5070283;28;20235;-78
2022/04/12 03:46:47;;;;;;;1999.90;999.90;;;;;;;;;;5061655;28;20239;-77
2022/04/12 03:49:14;;;;;;;1999.90;999.90;;;;;;;;;;5072595;28;21187;-77
2022/04/12 03:51:42;;;;;;;1999.90;999.90;;;;;;;;;;5069261;28;20228;-77
2022/04/12 03:54:10;;;;;;;1999.90;999.90;;;;;;;;;;5071567;28;20267;-78
2022/04/12 03:56:37;;;;;;;1999.90;999.90;;;;;;;;;;5072629;28;20323;-77
2022/04/12 03:59:06;;;;;;;1999.90;999.90;;;;;;;;;;5067646;28;21007;-77
2022/04/12 04:01:33;;;;;;;1999.90;999.90;;;;;;;;;;5062165;28;20243;-77
2022/04/12 04:04:03;;;;;;;1999.90;999.90;;;;;;;;;;5066604;28;20246;-78
2022/04/12 04:06:30;;;;;;;1999.90;999.90;;;;;;;;;;5071120;28;20318;-80
2022/04/12 04:08:58;;;;;;;1999.90;999.90;;;;;;;;;;5069851;28;20235;-79
2022/04/12 04:11:25;;;;;;;1999.90;999.90;;;;;;;;;;5070098;28;20235;-79
2022/04/12 04:13:53;;;;;;;1999.90;999.90;;;;;;;;;;5073816;28;20789;-78
2022/04/12 04:16:22;;;;;;;1999.90;999.90;;;;;;;;;;5068260;28;20250;-79
2022/04/12 04:18:49;;;;;;;1999.90;999.90;;;;;;;;;;5075557;28;20331;-78
2022/04/12 04:21:17;;;;;;;1999.90;999.90;;;;;;;;;;5094229;28;20744;-77
2022/04/12 04:23:45;;;;;;;1999.90;999.90;;;;;;;;;;5069520;28;20417;-77
2022/04/12 04:26:12;;;;;;;1999.90;999.90;;;;;;;;;;5071365;28;20239;-79
2022/04/12 04:28:42;;;;;;;1999.90;999.90;;;;;;;;;;5072318;28;20290;-80
2022/04/12 04:31:09;;;;;;;1999.90;999.90;;;;;;;;;;5079525;28;20230;-80
2022/04/12 04:33:39;;;;;;;1999.90;999.90;;;;;;;;;;5079209;28;20729;-80
2022/04/12 04:36:07;;;;;;;1999.90;999.90;;;;;;;;;;5072692;28;20255;-78
2022/04/12 04:38:34;;;;;;;1999.90;999.90;;;;;;;;;;5067891;28;20224;-80
2022/04/12 04:41:02;;;;;;;1999.90;999.90;;;;;;;;;;5073982;28;20259;-78
2022/04/12 04:43:35;;;;;;;1999.90;999.90;;;;;;;;;;5072893;28;20236;-79
2022/04/12 04:46:03;;;;;;;1999.90;999.90;;;;;;;;;;5073008;28;20238;-79
2022/04/12 04:48:31;;;;;;;1999.90;999.90;;;;;;;;;;5074435;28;20242;-78
2022/04/12 04:51:00;;;;;;;1999.90;999.90;;;;;;;;;;5075102;28;20216;-80
2022/04/12 04:53:28;;;;;;;1999.90;999.90;;;;;;;;;;5066625;28;20315;-80
2022/04/12 04:55:55;;;;;;;1999.90;999.90;;;;;;;;;;5072311;28;20333;-79
2022/04/12 04:58:23;;;;;;;1999.90;999.90;;;;;;;;;;5072276;28;20234;-79
2022/04/12 05:00:50;;;;;;;1999.90;999.90;;;;;;;;;;5055199;28;20242;-79
2022/04/12 05:03:18;;;;;;;1999.90;999.90;;;;;;;;;;5070607;28;21153;-79
2022/04/12 05:05:45;;;;;;;1999.90;999.90;;;;;;;;;;5054164;28;20285;-79
2022/04/12 05:08:14;;;;;;;1999.90;999.90;;;;;;;;;;5071599;28;20448;-80
2022/04/12 05:10:42;;;;;;;1999.90;999.90;;;;;;;;;;5070841;28;20397;-79
2022/04/12 05:13:09;;;;;;;1999.90;999.90;;;;;;;;;;5067363;28;20397;-79
2022/04/12 05:15:37;;;;;;;1999.90;999.90;;;;;;;;;;5054959;28;20387;-79
2022/04/12 05:18:05;;;;;;;1999.90;999.90;;;;;;;;;;5075494;28;20355;-80
2022/04/12 05:20:32;;;;;;;1999.90;999.90;;;;;;;;;;5065106;28;20219;-78
2022/04/12 05:23:00;;;;;;;1999.90;999.90;;;;;;;;;;5064836;28;20784;-78
2022/04/12 05:25:29;;;;;;;1999.90;999.90;;;;;;;;;;5068854;28;20286;-78
2022/04/12 05:27:56;;;;;;;1999.90;999.90;;;;;;;;;;5067419;28;20327;-78
2022/04/12 05:30:24;;;;;;;1999.90;999.90;;;;;;;;;;5048840;28;20238;-78
2022/04/12 05:32:51;;;;;;;1999.90;999.90;;;;;;;;;;5069093;28;20811;-78
2022/04/12 05:35:19;;;;;;;1999.90;999.90;;;;;;;;;;5066349;28;20310;-79
2022/04/12 05:37:48;;;;;;;1999.90;999.90;;;;;;;;;;5068368;28;20302;-79
2022/04/12 05:40:18;;;;;;;1999.90;999.90;;;;;;;;;;5069864;28;20231;-78
2022/04/12 05:42:47;;;;;;;1999.90;999.90;;;;;;;;;;5071530;28;20238;-78
2022/04/12 05:45:16;;;;;;;1999.90;999.90;;;;;;;;;;5067628;28;20231;-79
2022/04/12 05:47:44;;;;;;;1999.90;999.90;;;;;;;;;;5067744;28;20652;-78
2022/04/12 05:50:12;;;;;;;1999.90;999.90;;;;;;;;;;5069582;28;20251;-78
2022/04/12 05:52:40;;;;;;;1999.90;999.90;;;;;;;;;;5072947;28;20234;-78
2022/04/12 05:55:09;;;;;;;1999.90;999.90;;;;;;;;;;5068429;28;20224;-78
2022/04/12 05:57:38;;;;;;;1999.90;999.90;;;;;;;;;;5067898;28;20277;-78
2022/04/12 06:00:08;;;;;;;1999.90;999.90;;;;;;;;;;5067780;28;20232;-78
2022/04/12 06:02:36;;;;;;;1999.90;999.90;;;;;;;;;;5050095;28;20240;-79
2022/04/12 06:05:05;;;;;;;1999.90;999.90;;;;;;;;;;5042402;28;20311;-78
2022/04/12 06:07:34;;;;;;;1999.90;999.90;;;;;;;;;;5064190;28;21175;-78
2022/04/12 06:10:02;;;;;;;1999.90;999.90;;;;;;;;;;5058272;28;20236;-77
2022/04/12 06:12:29;;;;;;;1999.90;999.90;;;;;;;;;;5059798;28;20238;-77
2022/04/12 06:14:57;;;;;;;1999.90;999.90;;;;;;;;;;5058567;28;20290;-77
2022/04/12 06:17:30;;;;;;;1999.90;999.90;;;;;;;;;;5057337;28;21130;-78
2022/04/12 06:20:02;;;;;;;1999.90;999.90;;;;;;;;;;5043842;28;20255;-78
2022/04/12 06:22:30;;;;;;;1999.90;999.90;;;;;;;;;;5055257;28;20243;-77
2022/04/12 06:24:57;;;;;;;1999.90;999.90;;;;;;;;;;5058926;28;20283;-78
2022/04/12 06:27:29;;;;;;;1999.90;999.90;;;;;;;;;;5058890;28;20410;-77
2022/04/12 06:29:57;;;;;;;1999.90;999.90;;;;;;;;;;5058508;28;20226;-78
2022/04/12 06:32:25;;;;;;;1999.90;999.90;;;;;;;;;;5063745;28;20247;-78
2022/04/12 06:34:54;;;;;;;1999.90;999.90;;;;;;;;;;5047847;28;20322;-78
2022/04/12 06:37:24;;;;;;;1999.90;999.90;;;;;;;;;;5061731;28;21113;-77
2022/04/12 06:39:52;;;;;;;1999.90;999.90;;;;;;;;;;5058564;28;20228;-77
2022/04/12 06:42:20;;;;;;;1999.90;999.90;;;;;;;;;;5052784;28;20236;-78
2022/04/12 06:44:48;;;;;;;1999.90;999.90;;;;;;;;;;5065353;28;22193;-77
2022/04/12 06:47:16;;;;;;;1999.90;999.90;;;;;;;;;;5061251;28;21102;-77
2022/04/12 06:49:44;;;;;;;1999.90;999.90;;;;;;;;;;5064726;28;22234;-76
2022/04/12 06:52:14;;;;;;;1999.90;999.90;;;;;;;;;;5067137;28;20247;-78
2022/04/12 06:54:42;;;;;;;1999.90;999.90;;;;;;;;;;5061589;28;20297;-79
2022/04/12 06:57:09;;;;;;;1999.90;999.90;;;;;;;;;;5043584;28;20290;-78
2022/04/12 06:59:37;;;;;;;1999.90;999.90;;;;;;;;;;5065221;28;20230;-78
2022/04/12 07:02:05;;;;;;;1999.90;999.90;;;;;;;;;;5065635;28;20306;-77
2022/04/12 07:04:33;;;;;;;1999.90;999.90;;;;;;;;;;5063638;28;20242;-77
2022/04/12 07:07:01;;;;;;;1999.90;999.90;;;;;;;;;;5061233;28;20323;-77
2022/04/12 07:09:30;;;;;;;1999.90;999.90;;;;;;;;;;5061176;28;20232;-79
2022/04/12 07:11:59;;;;;;;1999.90;999.90;;;;;;;;;;5061493;28;20231;-77
2022/04/12 07:14:28;;;;;;;1999.90;999.90;;;;;;;;;;5070798;28;20232;-78
2022/04/12 07:16:56;;;;;;;1999.90;999.90;;;;;;;;;;5065821;28;20231;-78
2022/04/12 07:19:25;;;;;;;1999.90;999.90;;;;;;;;;;5065329;28;20264;-78
2022/04/12 07:21:52;;;;;;;1999.90;999.90;;;;;;;;;;5077887;28;20239;-79
2022/04/12 07:24:20;;;;;;;1999.90;999.90;;;;;;;;;;5080923;28;20244;-78
2022/04/12 07:26:49;;;;;;;1999.90;999.90;;;;;;;;;;5064341;28;21119;-79
2022/04/12 07:29:31;;;;;;;1999.90;999.90;;;;;;;;;;5072302;28;20261;-79
2022/04/12 07:31:59;;;;;;;1999.90;999.90;;;;;;;;;;5066504;28;20611;-78
2022/04/12 07:34:27;;;;;;;1999.90;999.90;;;;;;;;;;5069106;28;20240;-77
2022/04/12 07:36:54;;;;;;;1999.90;999.90;;;;;;;;;;5075667;28;20227;-77
2022/04/12 07:39:22;;;;;;;1999.90;999.90;;;;;;;;;;5076237;28;20293;-78
2022/04/12 07:41:51;;;;;;;1999.90;999.90;;;;;;;;;;5076954;28;20259;-79
2022/04/12 07:44:20;;;;;;;1999.90;999.90;;;;;;;;;;5082733;28;20240;-77
2022/04/12 07:46:48;;;;;;;1999.90;999.90;;;;;;;;;;5075147;28;20231;-78
2022/04/12 07:49:17;;;;;;;1999.90;999.90;;;;;;;;;;5076400;28;20326;-77
2022/04/12 07:51:44;;;;;;;1999.90;999.90;;;;;;;;;;5072973;28;20255;-77
2022/04/12 07:54:12;;;;;;;1999.90;999.90;;;;;;;;;;5069958;28;20257;-77
2022/04/12 07:56:39;;;;;;;1999.90;999.90;;;;;;;;;;5066376;28;20223;-77
2022/04/12 07:59:10;;;;;;;1999.90;999.90;;;;;;;;;;5071809;28;20227;-78
2022/04/12 08:01:38;;;;;;;1999.90;999.90;;;;;;;;;;5053138;28;20227;-77
2022/04/12 08:04:05;;;;;;;1999.90;999.90;;;;;;;;;;5067036;28;20251;-78
2022/04/12 08:06:33;;;;;;;1999.90;999.90;;;;;;;;;;5070630;28;20254;-77
2022/04/12 08:09:01;;;;;;;1999.90;999.90;;;;;;;;;;5069951;28;21142;-77
2022/04/12 08:11:30;;;;;;;1999.90;999.90;;;;;;;;;;5055332;28;20227;-78
2022/04/12 08:13:58;;;;;;;1999.90;999.90;;;;;;;;;;5057242;28;20239;-78
2022/04/12 08:16:26;;;;;;;1999.90;999.90;;;;;;;;;;5065540;28;20260;-78
2022/04/12 08:18:55;;;;;;;1999.90;999.90;;;;;;;;;;5084005;28;20220;-77
2022/04/12 08:21:32;;;;;;;1999.90;999.90;;;;;;;;;;5089215;28;20228;-78
2022/04/12 08:24:00;;;;;;;1999.90;999.90;;;;;;;;;;5055600;28;20291;-76
2022/04/12 08:26:28;;;;;;;1999.90;999.90;;;;;;;;;;5070684;28;20228;-77
2022/04/12 08:28:55;;;;;;;1999.90;999.90;;;;;;;;;;5067082;28;20240;-76
2022/04/12 08:31:23;;;;;;;1999.90;999.90;;;;;;;;;;5074640;28;20326;-76
2022/04/12 08:33:52;;;;;;;1999.90;999.90;;;;;;;;;;5072817;28;20235;-76
2022/04/12 08:36:22;;;;;;;1999.90;999.90;;;;;;;;;;5061038;28;20333;-76
2022/04/12 08:38:55;;;;;;;1999.90;999.90;;;;;;;;;;5062990;28;20228;-77
2022/04/12 08:41:24;;;;;;;1999.90;999.90;;;;;;;;;;5056727;28;20782;-77
2022/04/12 08:43:55;;;;;;;1999.90;999.90;;;;;;;;;;5063074;28;20240;-76
2022/04/12 08:46:24;;;;;;;1999.90;999.90;;;;;;;;;;5056797;28;21094;-77
2022/04/12 08:48:55;;;;;;;1999.90;999.90;;;;;;;;;;5065228;28;20430;-77
2022/04/12 08:51:23;;;;;;;1999.90;999.90;;;;;;;;;;5062929;28;20433;-77
2022/04/12 08:53:52;;;;;;;1999.90;999.90;;;;;;;;;;5040623;28;20427;-77
2022/04/12 08:56:20;;;;;;;1999.90;999.90;;;;;;;;;;5062291;28;21268;-78
2022/04/12 08:58:51;;;;;;;1999.90;999.90;;;;;;;;;;5061766;28;20311;-78
2022/04/12 09:01:37;;;;;;;1999.90;999.90;;;;;;;;;;5066876;28;20242;-77
2022/04/12 09:04:07;;;;;;;1999.90;999.90;;;;;;;;;;5077043;28;20396;-77
2022/04/12 09:06:34;;;;;;;1999.90;999.90;;;;;;;;;;5064582;28;20486;-77
2022/04/12 09:09:10;;;;;;;1999.90;999.90;;;;;;;;;;5066535;28;20413;-77
2022/04/12 09:11:40;;;;;;;1999.90;999.90;;;;;;;;;;5062991;28;20324;-78
2022/04/12 09:14:10;;;;;;;1999.90;999.90;;;;;;;;;;5062817;28;20438;-77
2022/04/12 09:16:42;;;;;;;1999.90;999.90;;;;;;;;;;5061340;28;20398;-77
2022/04/12 09:19:11;;;;;;;1999.90;999.90;;;;;;;;;;5069137;28;20918;-78
2022/04/12 09:21:45;;;;;;;1999.90;999.90;;;;;;;;;;5062546;28;21350;-77
2022/04/12 09:24:19;;;;;;;1999.90;999.90;;;;;;;;;;5067530;28;20962;-78
2022/04/12 09:26:54;;;;;;;1999.90;999.90;;;;;;;;;;5065181;28;20473;-77
2022/04/12 09:29:25;;;;;;;1999.90;999.90;;;;;;;;;;5081559;28;21150;-77
2022/04/12 09:31:55;;;;;;;1999.90;999.90;;;;;;;;;;5070001;28;20410;-77
2022/04/12 09:34:25;;;;;;;1999.90;999.90;;;;;;;;;;5054784;28;20520;-77
2022/04/12 09:37:39;;;;;;;1999.90;999.90;;;;;;;;;;5063541;28;20381;-80
2022/04/12 09:40:08;;;;;;;1999.90;999.90;;;;;;;;;;5046392;28;20412;-79
2022/04/12 09:42:37;;;;;;;1999.90;999.90;;;;;;;;;;5065615;28;20415;-80
2022/04/12 09:45:08;;;;;;;1999.90;999.90;;;;;;;;;;5062488;28;20388;-79
2022/04/12 09:47:40;;;;;;;1999.90;999.90;;;;;;;;;;5062482;28;20480;-80
2022/04/12 09:50:59;;;;;;;1999.90;999.90;;;;;;;;;;5064498;28;20948;-79
2022/04/12 09:53:39;;;;;;;1999.90;999.90;;;;;;;;;;5067906;28;20545;-79
2022/04/12 09:56:18;;;;;;;1999.90;999.90;;;;;;;;;;5067067;28;20407;-78
2022/04/12 10:10:06;;;;;;;1999.90;999.90;;;;;;;;;;5037526;28;20398;-79
2022/04/12 10:12:59;;;;;;;1999.90;999.90;;;;;;;;;;5029430;28;21258;-73
2022/04/12 10:15:27;;;;;;;1999.90;999.90;;;;;;;;;;5009113;28;21262;-79
2022/04/12 10:17:56;;;;;;;1999.90;999.90;;;;;;;;;;5042103;28;20921;-82
2022/04/12 10:20:25;;;;;;;1999.90;999.90;;;;;;;;;;5047193;28;20455;-77
2022/04/12 10:22:54;;;;;;;1999.90;999.90;;;;;;;;;;5021284;28;20373;-76
2022/04/12 10:25:22;;;;;;;1999.90;999.90;;;;;;;;;;5021051;28;20495;-76
2022/04/12 10:27:53;;;;;;;1999.90;999.90;;;;;;;;;;5035757;28;20463;-77
2022/04/12 10:30:26;;;;;;;1999.90;999.90;;;;;;;;;;5024719;28;20396;-77
2022/04/12 10:33:00;;;;;;;1999.90;999.90;;;;;;;;;;5022620;28;20521;-77
2022/04/12 10:35:29;;;;;;;1999.90;999.90;;;;;;;;;;5040283;28;20450;-76
2022/04/12 10:37:57;;;;;;;1999.90;999.90;;;;;;;;;;5016980;28;20415;-76
2022/04/12 10:40:44;;;;;;;1999.90;999.90;;;;;;;;;;5062066;28;20414;-76
2022/04/12 10:43:13;;;;;;;1999.90;999.90;;;;;;;;;;5039886;28;20405;-76
2022/04/12 10:45:45;;;;;;;1999.90;999.90;;;;;;;;;;5058172;28;20430;-76
2022/04/12 10:48:18;;;;;;;1999.90;999.90;;;;;;;;;;5061415;28;20466;-81
2022/04/12 10:50:46;;;;;;;1999.90;999.90;;;;;;;;;;5061451;28;20444;-81
2022/04/12 10:53:14;;;;;;;1999.90;999.90;;;;;;;;;;5057775;28;20798;-79
2022/04/12 10:55:42;;;;;;;1999.90;999.90;;;;;;;;;;5061578;28;20399;-80
2022/04/12 10:58:28;;;;;;;1999.90;999.90;;;;;;;;;;5060455;28;20404;-79
2022/04/12 11:00:56;;;;;;;1999.90;999.90;;;;;;;;;;5052397;28;20425;-79
2022/04/12 11:03:26;;;;;;;1999.90;999.90;;;;;;;;;;5063186;28;20394;-78
2022/04/12 11:05:55;;;;;;;1999.90;999.90;;;;;;;;;;5066866;28;20407;-79
2022/04/12 11:08:38;;;;;;;1999.90;999.90;;;;;;;;;;5068093;28;20419;-78
2022/04/12 11:11:10;;;;;;;1999.90;999.90;;;;;;;;;;5045898;28;20398;-78
2022/04/12 11:13:40;;;;;;;1999.90;999.90;;;;;;;;;;5069309;28;20407;-78
2022/04/12 11:16:10;;;;;;;1999.90;999.90;;;;;;;;;;5065015;28;20803;-79
2022/04/12 11:18:48;;;;;;;1999.90;999.90;;;;;;;;;;5062475;28;21277;-80
2022/04/12 11:21:16;;;;;;;1999.90;999.90;;;;;;;;;;5068942;28;20383;-79
2022/04/12 11:23:48;;;;;;;1999.90;999.90;;;;;;;;;;5065913;28;21004;-80
2022/04/12 11:26:34;;;;;;;1999.90;999.90;;;;;;;;;;5071968;28;20386;-75
2022/04/12 11:29:06;;;;;;;1999.90;999.90;;;;;;;;;;5070832;28;20470;-76
2022/04/12 11:31:36;;;;;;;1999.90;999.90;;;;;;;;;;5072384;28;20428;-78
2022/04/12 11:34:06;;;;;;;1999.90;999.90;;;;;;;;;;5074908;28;20363;-78
2022/04/12 11:36:34;;;;;;;1999.90;999.90;;;;;;;;;;5089277;28;20472;-79
2022/04/12 11:39:01;;;;;;;1999.90;999.90;;;;;;;;;;5077195;28;20411;-80
2022/04/12 11:41:29;;;;;;;1999.90;999.90;;;;;;;;;;5067507;28;20387;-79
2022/04/12 11:44:00;;;;;;;1999.90;999.90;;;;;;;;;;5067303;28;21086;-77
2022/04/12 11:46:33;;;;;;;1999.90;999.90;;;;;;;;;;5077497;28;20231;-77
2022/04/12 11:49:05;;;;;;;1999.90;999.90;;;;;;;;;;5052293;28;20314;-78
2022/04/12 11:51:36;;;;;;;1999.90;999.90;;;;;;;;;;5067881;28;20293;-79
2022/04/12 11:54:19;;;;;;;1999.90;999.90;;;;;;;;;;5066373;28;20239;-79
2022/04/12 11:56:47;;;;;;;1999.90;999.90;;;;;;;;;;5071347;28;20277;-79
2022/04/12 11:59:14;;;;;;;1999.90;999.90;;;;;;;;;;5074954;28;21088;-79
2022/04/12 12:01:43;;;;;;;1999.90;999.90;;;;;;;;;;5087291;28;20292;-81
2022/04/12 12:04:11;;;;;;;1999.90;999.90;;;;;;;;;;5084956;28;20247;-81
2022/04/12 12:06:52;;;;;;;1999.90;999.90;;;;;;;;;;5087469;28;20262;-80
2022/04/12 12:09:20;;;;;;;1999.90;999.90;;;;;;;;;;5083023;28;20215;-80
2022/04/12 12:11:48;;;;;;;1999.90;999.90;;;;;;;;;;5083580;28;20273;-79
2022/04/12 12:14:16;;;;;;;1999.90;999.90;;;;;;;;;;5072273;28;20779;-79
2022/04/12 12:16:45;;;;;;;1999.90;999.90;;;;;;;;;;5086109;28;20255;-80
2022/04/12 12:19:14;;;;;;;1999.90;999.90;;;;;;;;;;5072384;28;20238;-80
2022/04/12 12:21:44;;;;;;;1999.90;999.90;;;;;;;;;;5086972;28;21062;-80
2022/04/12 12:24:12;;;;;;;1999.90;999.90;;;;;;;;;;5085955;28;20258;-80
2022/04/12 12:26:41;;;;;;;1999.90;999.90;;;;;;;;;;5073378;28;20228;-79
2022/04/12 12:29:09;;;;;;;1999.90;999.90;;;;;;;;;;5077371;28;20231;-80
2022/04/12 12:31:43;;;;;;;1999.90;999.90;;;;;;;;;;5077266;28;20236;-78
2022/04/12 12:37:08;;;;;;;1999.90;999.90;;;;;;;;;;5123132;27;20749;-77
2022/04/12 12:39:42;;;;;;;1999.90;999.90;;;;;;;;;;5113993;27;20230;-80
2022/04/12 12:42:10;;;;;;;1999.90;999.90;;;;;;;;;;5119705;27;21078;-80
2022/04/12 12:44:38;;;;;;;1999.90;999.90;;;;;;;;;;5129049;27;20407;-80
2022/04/12 12:47:06;;;;;;;1999.90;999.90;;;;;;;;;;5127704;27;20229;-77
2022/04/12 12:49:39;;;;;;;1999.90;999.90;;;;;;;;;;5097858;27;20226;-76
2022/04/12 12:52:11;;;;;;;1999.90;999.90;;;;;;;;;;5098845;27;20234;-78
2022/04/12 12:54:44;;;;;;;1999.90;999.90;;;;;;;;;;5107713;27;20652;-79
2022/04/12 12:57:12;;;;;;;1999.90;999.90;;;;;;;;;;5103683;27;20309;-80
2022/04/12 12:59:48;;;;;;;1999.90;999.90;;;;;;;;;;5092654;28;20300;-79
2022/04/12 13:02:16;;;;;;;1999.90;999.90;;;;;;;;;;5112702;27;20222;-82
2022/04/12 13:04:53;;;;;;;1999.90;999.90;;;;;;;;;;5141258;27;20214;-79
2022/04/12 13:07:21;;;;;;;1999.90;999.90;;;;;;;;;;5098066;27;20222;-82
2022/04/12 13:10:11;;;;;;;1999.90;999.90;;;;;;;;;;5139167;27;20241;-80
2022/04/12 13:12:43;;;;;;;1999.90;999.90;;;;;;;;;;5101019;27;20692;-80
2022/04/12 13:15:23;;;;;;;1999.90;999.90;;;;;;;;;;5098494;27;20657;-81
2022/04/12 13:17:52;;;;;;;1999.90;999.90;;;;;;;;;;5106882;27;21268;-78
2022/04/12 13:20:20;;;;;;;1999.90;999.90;;;;;;;;;;5076135;27;20230;-80
2022/04/12 13:22:50;;;;;;;1999.90;999.90;;;;;;;;;;5103391;27;20218;-79
2022/04/12 13:25:18;;;;;;;1999.90;999.90;;;;;;;;;;5097781;27;20261;-76
2022/04/12 13:27:46;;;;;;;1999.90;999.90;;;;;;;;;;5126385;27;20279;-77
2022/04/12 13:30:14;;;;;;;1999.90;999.90;;;;;;;;;;5081656;27;20693;-78
2022/04/12 13:32:43;;;;;;;1999.90;999.90;;;;;;;;;;5095660;27;20227;-77
2022/04/12 13:35:11;;;;;;;1999.90;999.90;;;;;;;;;;5094811;27;20313;-75
2022/04/12 13:37:39;;;;;;;1999.90;999.90;;;;;;;;;;5102468;27;20241;-76
2022/04/12 13:40:10;;;;;;;1999.90;999.90;;;;;;;;;;5098692;27;20227;-74
2022/04/12 13:42:37;;;;;;;1999.90;999.90;;;;;;;;;;5103334;27;20249;-76
2022/04/12 13:45:06;;;;;;;1999.90;999.90;;;;;;;;;;5094355;27;20331;-75
2022/04/12 13:47:33;;;;;;;1999.90;999.90;;;;;;;;;;5089560;27;20255;-76
2022/04/12 13:50:01;;;;;;;1999.90;999.90;;;;;;;;;;5076393;28;20238;-76
2022/04/12 13:52:29;;;;;;;1999.90;999.90;;;;;;;;;;5086059;28;21050;-78
2022/04/12 13:54:57;;;;;;;1999.90;999.90;;;;;;;;;;5067636;28;20282;-76
2022/04/12 13:57:26;;;;;;;1999.90;999.90;;;;;;;;;;5079322;28;20282;-75
2022/04/12 13:59:53;;;;;;;1999.90;999.90;;;;;;;;;;5084395;28;20749;-74
2022/04/12 14:02:21;;;;;;;1999.90;999.90;;;;;;;;;;5082773;28;20224;-74
2022/04/12 14:04:49;;;;;;;1999.90;999.90;;;;;;;;;;5081488;28;21083;-74
2022/04/12 14:07:20;;;;;;;1999.90;999.90;;;;;;;;;;5087265;28;20274;-72
2022/04/12 14:09:48;;;;;;;1999.90;999.90;;;;;;;;;;5084788;28;20343;-76